sensor_id;sensor_type;location;lat;lon;timestamp;P1;durP1;ratioP1;P2;durP2;ratioP2
63005;SDS011;53704;52.532;6.426;2023-03-21T00:00:16;48.45;;;31.95;;
63005;SDS011;53704;52.532;6.426;2023-03-21T00:02:42;32.92;;;28.13;;
63005;SDS011;53704;52.532;6.426;2023-03-21T00:05:08;45.67;;;31.00;;
63005;SDS011;53704;52.532;6.426;2023-03-21T00:07:33;44.75;;;29.65;;
63005;SDS011;53704;52.532;6.426;2023-03-21T00:09:59;39.38;;;30.10;;
63005;SDS011;53704;52.532;6.426;2023-03-21T00:12:24;41.55;;;31.67;;
63005;SDS011;53704;52.532;6.426;2023-03-21T00:14:50;52.38;;;32.03;;
63005;SDS011;53704;52.532;6.426;2023-03-21T00:17:18;37.83;;;30.70;;
63005;SDS011;53704;52.532;6.426;2023-03-21T00:19:46;44.03;;;33.58;;
63005;SDS011;53704;52.532;6.426;2023-03-21T00:22:12;45.40;;;33.17;;
63005;SDS011;53704;52.532;6.426;2023-03-21T00:24:38;41.78;;;31.60;;
63005;SDS011;53704;52.532;6.426;2023-03-21T00:27:04;45.45;;;32.88;;
63005;SDS011;53704;52.532;6.426;2023-03-21T00:29:29;44.22;;;32.80;;
63005;SDS011;53704;52.532;6.426;2023-03-21T00:31:55;45.28;;;31.90;;
63005;SDS011;53704;52.532;6.426;2023-03-21T00:34:20;42.35;;;32.10;;
63005;SDS011;53704;52.532;6.426;2023-03-21T00:36:46;40.47;;;32.22;;
63005;SDS011;53704;52.532;6.426;2023-03-21T00:39:11;40.97;;;31.80;;
63005;SDS011;53704;52.532;6.426;2023-03-21T00:41:38;39.42;;;31.30;;
63005;SDS011;53704;52.532;6.426;2023-03-21T00:44:04;41.28;;;30.25;;
63005;SDS011;53704;52.532;6.426;2023-03-21T00:46:29;38.28;;;30.58;;
63005;SDS011;53704;52.532;6.426;2023-03-21T00:48:55;40.78;;;28.83;;
63005;SDS011;53704;52.532;6.426;2023-03-21T00:51:21;38.67;;;30.73;;
63005;SDS011;53704;52.532;6.426;2023-03-21T00:53:50;31.95;;;27.58;;
63005;SDS011;53704;52.532;6.426;2023-03-21T00:56:20;35.88;;;27.90;;
63005;SDS011;53704;52.532;6.426;2023-03-21T00:58:45;36.83;;;28.75;;
63005;SDS011;53704;52.532;6.426;2023-03-21T01:01:11;41.28;;;28.33;;
63005;SDS011;53704;52.532;6.426;2023-03-21T01:03:36;32.15;;;28.75;;
63005;SDS011;53704;52.532;6.426;2023-03-21T01:06:07;34.53;;;29.15;;
63005;SDS011;53704;52.532;6.426;2023-03-21T01:08:37;34.72;;;27.45;;
63005;SDS011;53704;52.532;6.426;2023-03-21T01:11:06;34.92;;;27.85;;
63005;SDS011;53704;52.532;6.426;2023-03-21T01:13:33;34.22;;;26.70;;
63005;SDS011;53704;52.532;6.426;2023-03-21T01:15:59;29.38;;;26.10;;
63005;SDS011;53704;52.532;6.426;2023-03-21T01:18:27;35.00;;;26.75;;
63005;SDS011;53704;52.532;6.426;2023-03-21T01:20:55;35.78;;;24.73;;
63005;SDS011;53704;52.532;6.426;2023-03-21T01:23:22;30.75;;;25.25;;
63005;SDS011;53704;52.532;6.426;2023-03-21T01:25:48;32.83;;;24.65;;
63005;SDS011;53704;52.532;6.426;2023-03-21T01:28:15;30.20;;;25.38;;
63005;SDS011;53704;52.532;6.426;2023-03-21T01:30:48;32.85;;;25.63;;
63005;SDS011;53704;52.532;6.426;2023-03-21T01:33:15;36.00;;;26.33;;
63005;SDS011;53704;52.532;6.426;2023-03-21T01:35:41;33.05;;;23.33;;
63005;SDS011;53704;52.532;6.426;2023-03-21T01:38:07;30.98;;;24.25;;
63005;SDS011;53704;52.532;6.426;2023-03-21T01:40:36;31.52;;;23.80;;
63005;SDS011;53704;52.532;6.426;2023-03-21T01:43:02;28.25;;;22.80;;
63005;SDS011;53704;52.532;6.426;2023-03-21T01:48:35;26.92;;;22.17;;
63005;SDS011;53704;52.532;6.426;2023-03-21T01:51:03;30.67;;;21.80;;
63005;SDS011;53704;52.532;6.426;2023-03-21T01:53:29;29.83;;;21.75;;
63005;SDS011;53704;52.532;6.426;2023-03-21T01:55:57;28.20;;;21.17;;
63005;SDS011;53704;52.532;6.426;2023-03-21T01:58:25;26.33;;;21.38;;
63005;SDS011;53704;52.532;6.426;2023-03-21T02:00:51;24.70;;;20.63;;
63005;SDS011;53704;52.532;6.426;2023-03-21T02:03:19;27.67;;;20.40;;
63005;SDS011;53704;52.532;6.426;2023-03-21T02:05:53;27.05;;;21.45;;
63005;SDS011;53704;52.532;6.426;2023-03-21T02:08:21;30.58;;;21.08;;
63005;SDS011;53704;52.532;6.426;2023-03-21T02:10:47;24.10;;;21.52;;
63005;SDS011;53704;52.532;6.426;2023-03-21T02:13:14;24.05;;;21.00;;
63005;SDS011;53704;52.532;6.426;2023-03-21T02:15:41;23.13;;;20.42;;
63005;SDS011;53704;52.532;6.426;2023-03-21T02:27:16;24.13;;;21.13;;
63005;SDS011;53704;52.532;6.426;2023-03-21T02:38:02;30.15;;;24.45;;
63005;SDS011;53704;52.532;6.426;2023-03-21T02:40:44;31.77;;;25.48;;
63005;SDS011;53704;52.532;6.426;2023-03-21T02:43:29;29.83;;;24.33;;
63005;SDS011;53704;52.532;6.426;2023-03-21T02:46:08;38.42;;;25.00;;
63005;SDS011;53704;52.532;6.426;2023-03-21T02:48:42;28.73;;;24.65;;
63005;SDS011;53704;52.532;6.426;2023-03-21T02:51:13;34.08;;;25.35;;
63005;SDS011;53704;52.532;6.426;2023-03-21T02:53:42;29.73;;;23.45;;
63005;SDS011;53704;52.532;6.426;2023-03-21T02:56:12;25.13;;;22.05;;
63005;SDS011;53704;52.532;6.426;2023-03-21T02:58:38;30.15;;;22.42;;
63005;SDS011;53704;52.532;6.426;2023-03-21T03:01:05;27.98;;;22.45;;
63005;SDS011;53704;52.532;6.426;2023-03-21T03:03:33;30.90;;;22.17;;
63005;SDS011;53704;52.532;6.426;2023-03-21T03:06:01;33.78;;;23.30;;
63005;SDS011;53704;52.532;6.426;2023-03-21T03:08:41;33.80;;;23.65;;
63005;SDS011;53704;52.532;6.426;2023-03-21T03:11:25;29.63;;;23.40;;
63005;SDS011;53704;52.532;6.426;2023-03-21T03:13:59;31.80;;;23.17;;
63005;SDS011;53704;52.532;6.426;2023-03-21T03:16:33;34.90;;;24.43;;
63005;SDS011;53704;52.532;6.426;2023-03-21T03:19:18;32.63;;;25.23;;
63005;SDS011;53704;52.532;6.426;2023-03-21T03:22:06;40.25;;;26.50;;
63005;SDS011;53704;52.532;6.426;2023-03-21T03:24:57;38.47;;;25.65;;
63005;SDS011;53704;52.532;6.426;2023-03-21T03:27:30;34.60;;;26.05;;
63005;SDS011;53704;52.532;6.426;2023-03-21T03:30:00;35.88;;;26.15;;
63005;SDS011;53704;52.532;6.426;2023-03-21T03:32:46;44.22;;;28.77;;
63005;SDS011;53704;52.532;6.426;2023-03-21T03:37:41;35.67;;;25.63;;
63005;SDS011;53704;52.532;6.426;2023-03-21T03:40:17;30.40;;;25.92;;
63005;SDS011;53704;52.532;6.426;2023-03-21T03:42:52;33.05;;;26.58;;
63005;SDS011;53704;52.532;6.426;2023-03-21T03:45:21;40.08;;;26.40;;
63005;SDS011;53704;52.532;6.426;2023-03-21T03:47:53;34.92;;;27.90;;
63005;SDS011;53704;52.532;6.426;2023-03-21T03:53:05;39.17;;;27.65;;
63005;SDS011;53704;52.532;6.426;2023-03-21T03:55:52;38.60;;;27.80;;
63005;SDS011;53704;52.532;6.426;2023-03-21T03:58:20;36.20;;;28.25;;
63005;SDS011;53704;52.532;6.426;2023-03-21T04:00:47;36.28;;;26.67;;
63005;SDS011;53704;52.532;6.426;2023-03-21T04:03:12;36.08;;;28.50;;
63005;SDS011;53704;52.532;6.426;2023-03-21T04:05:38;40.92;;;29.42;;
63005;SDS011;53704;52.532;6.426;2023-03-21T04:08:06;36.67;;;28.60;;
63005;SDS011;53704;52.532;6.426;2023-03-21T04:10:32;40.30;;;29.92;;
63005;SDS011;53704;52.532;6.426;2023-03-21T04:12:57;51.42;;;28.55;;
63005;SDS011;53704;52.532;6.426;2023-03-21T04:15:23;35.67;;;28.30;;
63005;SDS011;53704;52.532;6.426;2023-03-21T04:17:48;38.03;;;28.77;;
63005;SDS011;53704;52.532;6.426;2023-03-21T04:20:14;43.90;;;30.13;;
63005;SDS011;53704;52.532;6.426;2023-03-21T04:22:40;38.90;;;30.75;;
63005;SDS011;53704;52.532;6.426;2023-03-21T04:25:06;45.55;;;28.67;;
63005;SDS011;53704;52.532;6.426;2023-03-21T04:27:32;40.85;;;29.52;;
63005;SDS011;53704;52.532;6.426;2023-03-21T04:29:57;45.95;;;30.80;;
63005;SDS011;53704;52.532;6.426;2023-03-21T04:32:23;45.80;;;29.40;;
63005;SDS011;53704;52.532;6.426;2023-03-21T04:34:50;39.95;;;28.27;;
63005;SDS011;53704;52.532;6.426;2023-03-21T04:37:18;44.90;;;30.58;;
63005;SDS011;53704;52.532;6.426;2023-03-21T04:39:47;45.85;;;29.58;;
63005;SDS011;53704;52.532;6.426;2023-03-21T04:42:14;49.42;;;30.70;;
63005;SDS011;53704;52.532;6.426;2023-03-21T04:44:42;51.20;;;30.05;;
63005;SDS011;53704;52.532;6.426;2023-03-21T04:47:09;59.53;;;31.98;;
63005;SDS011;53704;52.532;6.426;2023-03-21T04:49:35;47.55;;;32.65;;
63005;SDS011;53704;52.532;6.426;2023-03-21T04:52:00;49.25;;;32.35;;
63005;SDS011;53704;52.532;6.426;2023-03-21T04:54:26;42.53;;;30.73;;
63005;SDS011;53704;52.532;6.426;2023-03-21T04:56:51;46.42;;;31.45;;
63005;SDS011;53704;52.532;6.426;2023-03-21T04:59:17;51.80;;;31.38;;
63005;SDS011;53704;52.532;6.426;2023-03-21T05:01:43;49.90;;;31.83;;
63005;SDS011;53704;52.532;6.426;2023-03-21T05:04:10;42.28;;;30.38;;
63005;SDS011;53704;52.532;6.426;2023-03-21T05:06:37;42.83;;;30.55;;
63005;SDS011;53704;52.532;6.426;2023-03-21T05:09:04;47.05;;;30.90;;
63005;SDS011;53704;52.532;6.426;2023-03-21T05:11:31;48.58;;;29.63;;
63005;SDS011;53704;52.532;6.426;2023-03-21T05:14:00;45.97;;;29.55;;
63005;SDS011;53704;52.532;6.426;2023-03-21T05:16:25;43.25;;;29.48;;
63005;SDS011;53704;52.532;6.426;2023-03-21T05:18:54;55.72;;;30.45;;
63005;SDS011;53704;52.532;6.426;2023-03-21T05:21:20;46.45;;;29.33;;
63005;SDS011;53704;52.532;6.426;2023-03-21T05:23:47;46.97;;;29.42;;
63005;SDS011;53704;52.532;6.426;2023-03-21T05:26:19;44.30;;;26.95;;
63005;SDS011;53704;52.532;6.426;2023-03-21T05:28:45;43.33;;;27.13;;
63005;SDS011;53704;52.532;6.426;2023-03-21T05:31:12;45.70;;;26.52;;
63005;SDS011;53704;52.532;6.426;2023-03-21T05:33:40;44.17;;;26.98;;
63005;SDS011;53704;52.532;6.426;2023-03-21T05:36:06;38.25;;;26.60;;
63005;SDS011;53704;52.532;6.426;2023-03-21T05:38:32;49.53;;;27.75;;
63005;SDS011;53704;52.532;6.426;2023-03-21T05:40:58;39.28;;;27.02;;
63005;SDS011;53704;52.532;6.426;2023-03-21T05:43:23;42.42;;;25.75;;
63005;SDS011;53704;52.532;6.426;2023-03-21T05:45:49;39.00;;;23.83;;
63005;SDS011;53704;52.532;6.426;2023-03-21T05:48:14;35.33;;;22.88;;
63005;SDS011;53704;52.532;6.426;2023-03-21T05:50:40;32.92;;;23.33;;
63005;SDS011;53704;52.532;6.426;2023-03-21T05:53:06;40.63;;;24.58;;
63005;SDS011;53704;52.532;6.426;2023-03-21T05:55:31;33.67;;;21.83;;
63005;SDS011;53704;52.532;6.426;2023-03-21T05:57:56;32.85;;;22.48;;
63005;SDS011;53704;52.532;6.426;2023-03-21T06:00:22;36.17;;;21.88;;
63005;SDS011;53704;52.532;6.426;2023-03-21T06:02:48;35.33;;;22.02;;
63005;SDS011;53704;52.532;6.426;2023-03-21T06:05:16;40.35;;;22.48;;
63005;SDS011;53704;52.532;6.426;2023-03-21T06:07:42;34.78;;;23.00;;
63005;SDS011;53704;52.532;6.426;2023-03-21T06:10:07;34.22;;;22.17;;
63005;SDS011;53704;52.532;6.426;2023-03-21T06:12:33;32.97;;;21.33;;
63005;SDS011;53704;52.532;6.426;2023-03-21T06:14:59;34.38;;;23.70;;
63005;SDS011;53704;52.532;6.426;2023-03-21T06:17:25;30.73;;;21.38;;
63005;SDS011;53704;52.532;6.426;2023-03-21T06:19:51;38.88;;;24.38;;
63005;SDS011;53704;52.532;6.426;2023-03-21T06:22:16;39.65;;;22.55;;
63005;SDS011;53704;52.532;6.426;2023-03-21T06:24:42;32.95;;;22.40;;
63005;SDS011;53704;52.532;6.426;2023-03-21T06:27:07;38.83;;;23.45;;
63005;SDS011;53704;52.532;6.426;2023-03-21T06:29:32;43.70;;;22.55;;
63005;SDS011;53704;52.532;6.426;2023-03-21T06:31:58;34.03;;;23.55;;
63005;SDS011;53704;52.532;6.426;2023-03-21T06:34:23;40.03;;;23.25;;
63005;SDS011;53704;52.532;6.426;2023-03-21T06:36:49;38.28;;;23.80;;
63005;SDS011;53704;52.532;6.426;2023-03-21T06:39:16;34.28;;;22.13;;
63005;SDS011;53704;52.532;6.426;2023-03-21T06:41:42;39.95;;;23.95;;
63005;SDS011;53704;52.532;6.426;2023-03-21T06:44:07;35.72;;;22.77;;
63005;SDS011;53704;52.532;6.426;2023-03-21T06:46:32;32.80;;;20.83;;
63005;SDS011;53704;52.532;6.426;2023-03-21T06:48:58;34.60;;;20.63;;
63005;SDS011;53704;52.532;6.426;2023-03-21T06:51:23;39.85;;;21.73;;
63005;SDS011;53704;52.532;6.426;2023-03-21T06:53:49;36.17;;;19.08;;
63005;SDS011;53704;52.532;6.426;2023-03-21T06:56:14;35.42;;;19.70;;
63005;SDS011;53704;52.532;6.426;2023-03-21T06:58:40;37.95;;;20.27;;
63005;SDS011;53704;52.532;6.426;2023-03-21T07:01:06;36.70;;;19.27;;
63005;SDS011;53704;52.532;6.426;2023-03-21T07:03:32;34.90;;;18.90;;
63005;SDS011;53704;52.532;6.426;2023-03-21T07:05:58;30.60;;;18.83;;
63005;SDS011;53704;52.532;6.426;2023-03-21T07:08:27;38.40;;;19.13;;
63005;SDS011;53704;52.532;6.426;2023-03-21T07:10:54;34.60;;;18.42;;
63005;SDS011;53704;52.532;6.426;2023-03-21T07:13:21;36.85;;;19.02;;
63005;SDS011;53704;52.532;6.426;2023-03-21T07:15:47;35.50;;;18.55;;
63005;SDS011;53704;52.532;6.426;2023-03-21T07:18:12;33.92;;;19.63;;
63005;SDS011;53704;52.532;6.426;2023-03-21T07:20:38;40.42;;;18.80;;
63005;SDS011;53704;52.532;6.426;2023-03-21T07:23:03;37.15;;;19.17;;
63005;SDS011;53704;52.532;6.426;2023-03-21T07:25:29;37.92;;;18.80;;
63005;SDS011;53704;52.532;6.426;2023-03-21T07:27:55;32.97;;;17.67;;
63005;SDS011;53704;52.532;6.426;2023-03-21T07:30:21;38.53;;;18.52;;
63005;SDS011;53704;52.532;6.426;2023-03-21T07:32:46;40.00;;;18.00;;
63005;SDS011;53704;52.532;6.426;2023-03-21T07:35:14;28.25;;;17.30;;
63005;SDS011;53704;52.532;6.426;2023-03-21T07:37:41;31.00;;;17.35;;
63005;SDS011;53704;52.532;6.426;2023-03-21T07:40:07;39.08;;;17.95;;
63005;SDS011;53704;52.532;6.426;2023-03-21T07:42:34;44.10;;;17.38;;
63005;SDS011;53704;52.532;6.426;2023-03-21T07:45:00;38.33;;;17.25;;
63005;SDS011;53704;52.532;6.426;2023-03-21T07:47:25;32.78;;;17.73;;
63005;SDS011;53704;52.532;6.426;2023-03-21T07:49:53;43.92;;;18.05;;
63005;SDS011;53704;52.532;6.426;2023-03-21T07:52:18;31.52;;;16.80;;
63005;SDS011;53704;52.532;6.426;2023-03-21T07:54:44;34.33;;;18.63;;
63005;SDS011;53704;52.532;6.426;2023-03-21T07:57:10;36.03;;;16.52;;
63005;SDS011;53704;52.532;6.426;2023-03-21T07:59:35;39.35;;;18.13;;
63005;SDS011;53704;52.532;6.426;2023-03-21T08:02:00;38.15;;;18.52;;
63005;SDS011;53704;52.532;6.426;2023-03-21T08:04:26;25.77;;;15.80;;
63005;SDS011;53704;52.532;6.426;2023-03-21T08:06:51;36.00;;;16.25;;
63005;SDS011;53704;52.532;6.426;2023-03-21T08:09:17;34.05;;;15.98;;
63005;SDS011;53704;52.532;6.426;2023-03-21T08:11:42;33.20;;;15.82;;
63005;SDS011;53704;52.532;6.426;2023-03-21T08:14:08;32.22;;;15.55;;
63005;SDS011;53704;52.532;6.426;2023-03-21T08:16:33;34.42;;;15.93;;
63005;SDS011;53704;52.532;6.426;2023-03-21T08:18:59;33.95;;;16.05;;
63005;SDS011;53704;52.532;6.426;2023-03-21T08:21:24;39.90;;;16.75;;
63005;SDS011;53704;52.532;6.426;2023-03-21T08:23:51;37.13;;;16.25;;
63005;SDS011;53704;52.532;6.426;2023-03-21T08:26:17;31.55;;;15.50;;
63005;SDS011;53704;52.532;6.426;2023-03-21T08:28:43;30.52;;;14.18;;
63005;SDS011;53704;52.532;6.426;2023-03-21T08:31:10;26.92;;;14.45;;
63005;SDS011;53704;52.532;6.426;2023-03-21T08:33:36;31.85;;;15.93;;
63005;SDS011;53704;52.532;6.426;2023-03-21T08:36:02;38.80;;;15.23;;
63005;SDS011;53704;52.532;6.426;2023-03-21T08:38:28;31.52;;;14.95;;
63005;SDS011;53704;52.532;6.426;2023-03-21T08:40:57;28.65;;;14.20;;
63005;SDS011;53704;52.532;6.426;2023-03-21T08:43:26;32.13;;;14.85;;
63005;SDS011;53704;52.532;6.426;2023-03-21T08:45:52;32.20;;;16.00;;
63005;SDS011;53704;52.532;6.426;2023-03-21T08:48:17;34.97;;;15.00;;
63005;SDS011;53704;52.532;6.426;2023-03-21T08:50:43;26.55;;;14.27;;
63005;SDS011;53704;52.532;6.426;2023-03-21T08:53:09;34.22;;;13.88;;
63005;SDS011;53704;52.532;6.426;2023-03-21T08:55:35;30.38;;;14.48;;
63005;SDS011;53704;52.532;6.426;2023-03-21T08:58:01;26.70;;;13.52;;
63005;SDS011;53704;52.532;6.426;2023-03-21T09:00:27;30.98;;;14.50;;
63005;SDS011;53704;52.532;6.426;2023-03-21T09:02:53;28.73;;;14.05;;
63005;SDS011;53704;52.532;6.426;2023-03-21T09:05:20;24.63;;;12.98;;
63005;SDS011;53704;52.532;6.426;2023-03-21T09:07:46;36.00;;;13.57;;
63005;SDS011;53704;52.532;6.426;2023-03-21T09:10:16;33.45;;;14.80;;
63005;SDS011;53704;52.532;6.426;2023-03-21T09:12:45;31.25;;;13.38;;
63005;SDS011;53704;52.532;6.426;2023-03-21T09:15:11;34.67;;;13.73;;
63005;SDS011;53704;52.532;6.426;2023-03-21T09:17:38;24.63;;;14.15;;
63005;SDS011;53704;52.532;6.426;2023-03-21T09:20:08;26.48;;;12.80;;
63005;SDS011;53704;52.532;6.426;2023-03-21T09:22:37;28.05;;;13.75;;
63005;SDS011;53704;52.532;6.426;2023-03-21T09:25:03;38.65;;;13.43;;
63005;SDS011;53704;52.532;6.426;2023-03-21T09:27:35;30.70;;;13.55;;
63005;SDS011;53704;52.532;6.426;2023-03-21T09:30:01;29.38;;;13.65;;
63005;SDS011;53704;52.532;6.426;2023-03-21T09:32:26;38.30;;;14.63;;
63005;SDS011;53704;52.532;6.426;2023-03-21T09:34:53;29.17;;;13.13;;
63005;SDS011;53704;52.532;6.426;2023-03-21T09:37:19;37.55;;;15.23;;
63005;SDS011;53704;52.532;6.426;2023-03-21T09:39:45;39.08;;;15.23;;
63005;SDS011;53704;52.532;6.426;2023-03-21T09:45:26;42.90;;;15.25;;
63005;SDS011;53704;52.532;6.426;2023-03-21T09:48:08;30.92;;;13.73;;
63005;SDS011;53704;52.532;6.426;2023-03-21T09:50:43;33.80;;;14.05;;
63005;SDS011;53704;52.532;6.426;2023-03-21T09:55:40;29.10;;;13.77;;
63005;SDS011;53704;52.532;6.426;2023-03-21T09:58:42;32.22;;;13.73;;
63005;SDS011;53704;52.532;6.426;2023-03-21T10:01:22;27.05;;;13.40;;
63005;SDS011;53704;52.532;6.426;2023-03-21T10:03:57;34.53;;;13.32;;
63005;SDS011;53704;52.532;6.426;2023-03-21T10:06:25;33.38;;;13.57;;
63005;SDS011;53704;52.532;6.426;2023-03-21T10:08:56;30.77;;;13.75;;
63005;SDS011;53704;52.532;6.426;2023-03-21T10:11:30;26.65;;;13.15;;
63005;SDS011;53704;52.532;6.426;2023-03-21T10:14:16;32.70;;;13.30;;
63005;SDS011;53704;52.532;6.426;2023-03-21T10:16:48;23.95;;;13.13;;
63005;SDS011;53704;52.532;6.426;2023-03-21T10:19:18;27.05;;;13.68;;
63005;SDS011;53704;52.532;6.426;2023-03-21T10:21:45;27.70;;;13.00;;
63005;SDS011;53704;52.532;6.426;2023-03-21T10:24:16;32.70;;;13.65;;
63005;SDS011;53704;52.532;6.426;2023-03-21T10:26:46;30.92;;;13.70;;
63005;SDS011;53704;52.532;6.426;2023-03-21T10:29:14;28.02;;;12.52;;
63005;SDS011;53704;52.532;6.426;2023-03-21T10:31:41;19.55;;;12.60;;
63005;SDS011;53704;52.532;6.426;2023-03-21T10:34:19;27.10;;;12.07;;
63005;SDS011;53704;52.532;6.426;2023-03-21T10:36:52;21.35;;;11.95;;
63005;SDS011;53704;52.532;6.426;2023-03-21T10:39:31;25.98;;;12.27;;
63005;SDS011;53704;52.532;6.426;2023-03-21T10:42:00;21.40;;;10.95;;
63005;SDS011;53704;52.532;6.426;2023-03-21T10:44:29;22.40;;;12.05;;
63005;SDS011;53704;52.532;6.426;2023-03-21T10:46:58;23.30;;;11.52;;
63005;SDS011;53704;52.532;6.426;2023-03-21T10:49:29;23.35;;;11.93;;
63005;SDS011;53704;52.532;6.426;2023-03-21T10:51:56;27.40;;;11.82;;
63005;SDS011;53704;52.532;6.426;2023-03-21T10:54:27;25.05;;;10.48;;
63005;SDS011;53704;52.532;6.426;2023-03-21T10:57:08;27.83;;;11.02;;
63005;SDS011;53704;52.532;6.426;2023-03-21T10:59:52;22.58;;;10.93;;
63005;SDS011;53704;52.532;6.426;2023-03-21T11:02:34;25.55;;;10.95;;
63005;SDS011;53704;52.532;6.426;2023-03-21T11:05:05;23.35;;;9.88;;
63005;SDS011;53704;52.532;6.426;2023-03-21T11:07:38;18.95;;;10.90;;
63005;SDS011;53704;52.532;6.426;2023-03-21T11:10:15;21.40;;;9.68;;
63005;SDS011;53704;52.532;6.426;2023-03-21T11:12:51;16.35;;;8.45;;
63005;SDS011;53704;52.532;6.426;2023-03-21T11:17:55;17.67;;;8.93;;
63005;SDS011;53704;52.532;6.426;2023-03-21T11:20:21;11.90;;;7.95;;
63005;SDS011;53704;52.532;6.426;2023-03-21T11:22:47;21.98;;;8.35;;
63005;SDS011;53704;52.532;6.426;2023-03-21T11:28:11;18.17;;;8.82;;
63005;SDS011;53704;52.532;6.426;2023-03-21T11:30:49;11.80;;;7.88;;
63005;SDS011;53704;52.532;6.426;2023-03-21T11:33:18;14.27;;;7.50;;
63005;SDS011;53704;52.532;6.426;2023-03-21T11:35:44;21.55;;;7.60;;
63005;SDS011;53704;52.532;6.426;2023-03-21T11:38:28;15.25;;;7.70;;
63005;SDS011;53704;52.532;6.426;2023-03-21T11:40:57;15.13;;;8.85;;
63005;SDS011;53704;52.532;6.426;2023-03-21T11:43:27;15.55;;;7.35;;
63005;SDS011;53704;52.532;6.426;2023-03-21T11:45:57;15.82;;;7.85;;
63005;SDS011;53704;52.532;6.426;2023-03-21T11:48:30;12.73;;;7.85;;
63005;SDS011;53704;52.532;6.426;2023-03-21T11:51:09;9.68;;;7.05;;
63005;SDS011;53704;52.532;6.426;2023-03-21T11:56:28;16.77;;;6.90;;
63005;SDS011;53704;52.532;6.426;2023-03-21T11:59:16;12.50;;;6.18;;
63005;SDS011;53704;52.532;6.426;2023-03-21T12:15:51;14.95;;;6.47;;
63005;SDS011;53704;52.532;6.426;2023-03-21T12:27:03;12.23;;;6.55;;
63005;SDS011;53704;52.532;6.426;2023-03-21T12:32:17;19.08;;;8.10;;
63005;SDS011;53704;52.532;6.426;2023-03-21T12:38:08;12.35;;;8.02;;
63005;SDS011;53704;52.532;6.426;2023-03-21T12:40:43;15.55;;;8.57;;
63005;SDS011;53704;52.532;6.426;2023-03-21T12:48:56;14.93;;;7.82;;
63005;SDS011;53704;52.532;6.426;2023-03-21T12:51:30;21.20;;;7.57;;
63005;SDS011;53704;52.532;6.426;2023-03-21T12:54:01;13.52;;;7.18;;
63005;SDS011;53704;52.532;6.426;2023-03-21T12:57:19;18.55;;;7.50;;
63005;SDS011;53704;52.532;6.426;2023-03-21T12:59:43;22.17;;;6.88;;
63005;SDS011;53704;52.532;6.426;2023-03-21T13:02:30;14.73;;;7.07;;
63005;SDS011;53704;52.532;6.426;2023-03-21T13:05:17;13.98;;;6.25;;
63005;SDS011;53704;52.532;6.426;2023-03-21T13:07:48;11.75;;;5.78;;
63005;SDS011;53704;52.532;6.426;2023-03-21T13:10:18;16.58;;;7.82;;
63005;SDS011;53704;52.532;6.426;2023-03-21T13:24:17;12.77;;;7.15;;
63005;SDS011;53704;52.532;6.426;2023-03-21T13:27:05;20.67;;;6.53;;
63005;SDS011;53704;52.532;6.426;2023-03-21T13:29:50;15.55;;;5.97;;
63005;SDS011;53704;52.532;6.426;2023-03-21T13:32:28;19.05;;;6.60;;
63005;SDS011;53704;52.532;6.426;2023-03-21T13:34:58;12.75;;;5.97;;
63005;SDS011;53704;52.532;6.426;2023-03-21T13:37:28;10.10;;;6.35;;
63005;SDS011;53704;52.532;6.426;2023-03-21T13:40:04;8.95;;;6.18;;
63005;SDS011;53704;52.532;6.426;2023-03-21T13:42:41;12.32;;;6.10;;
63005;SDS011;53704;52.532;6.426;2023-03-21T13:45:09;13.63;;;6.22;;
63005;SDS011;53704;52.532;6.426;2023-03-21T13:55:28;10.73;;;6.20;;
63005;SDS011;53704;52.532;6.426;2023-03-21T13:57:55;11.65;;;6.63;;
63005;SDS011;53704;52.532;6.426;2023-03-21T14:00:29;15.57;;;6.32;;
63005;SDS011;53704;52.532;6.426;2023-03-21T14:02:59;13.55;;;6.55;;
63005;SDS011;53704;52.532;6.426;2023-03-21T14:05:31;11.82;;;6.68;;
63005;SDS011;53704;52.532;6.426;2023-03-21T14:08:03;13.57;;;7.18;;
63005;SDS011;53704;52.532;6.426;2023-03-21T14:10:41;11.68;;;6.38;;
63005;SDS011;53704;52.532;6.426;2023-03-21T14:13:10;12.35;;;6.60;;
63005;SDS011;53704;52.532;6.426;2023-03-21T14:15:43;14.50;;;6.45;;
63005;SDS011;53704;52.532;6.426;2023-03-21T14:18:15;13.73;;;6.22;;
63005;SDS011;53704;52.532;6.426;2023-03-21T14:20:43;18.85;;;5.28;;
63005;SDS011;53704;52.532;6.426;2023-03-21T14:23:17;11.80;;;5.78;;
63005;SDS011;53704;52.532;6.426;2023-03-21T14:25:43;15.48;;;6.30;;
63005;SDS011;53704;52.532;6.426;2023-03-21T14:28:14;7.60;;;5.30;;
63005;SDS011;53704;52.532;6.426;2023-03-21T14:30:43;14.45;;;6.18;;
63005;SDS011;53704;52.532;6.426;2023-03-21T14:33:17;8.45;;;5.50;;
63005;SDS011;53704;52.532;6.426;2023-03-21T14:35:46;8.80;;;5.13;;
63005;SDS011;53704;52.532;6.426;2023-03-21T14:38:19;8.45;;;5.50;;
63005;SDS011;53704;52.532;6.426;2023-03-21T14:40:54;8.85;;;5.05;;
63005;SDS011;53704;52.532;6.426;2023-03-21T14:43:20;14.02;;;5.78;;
63005;SDS011;53704;52.532;6.426;2023-03-21T14:45:48;8.20;;;4.95;;
63005;SDS011;53704;52.532;6.426;2023-03-21T14:48:17;10.63;;;5.43;;
63005;SDS011;53704;52.532;6.426;2023-03-21T14:50:47;10.35;;;5.97;;
63005;SDS011;53704;52.532;6.426;2023-03-21T14:53:15;11.43;;;4.97;;
63005;SDS011;53704;52.532;6.426;2023-03-21T14:58:39;8.82;;;5.50;;
63005;SDS011;53704;52.532;6.426;2023-03-21T15:01:06;10.57;;;5.38;;
63005;SDS011;53704;52.532;6.426;2023-03-21T15:03:39;9.35;;;5.15;;
63005;SDS011;53704;52.532;6.426;2023-03-21T15:06:12;14.52;;;6.28;;
63005;SDS011;53704;52.532;6.426;2023-03-21T15:08:38;17.73;;;5.45;;
63005;SDS011;53704;52.532;6.426;2023-03-21T15:11:05;13.80;;;5.75;;
63005;SDS011;53704;52.532;6.426;2023-03-21T15:13:36;7.35;;;5.32;;
63005;SDS011;53704;52.532;6.426;2023-03-21T15:16:10;12.27;;;5.28;;
63005;SDS011;53704;52.532;6.426;2023-03-21T15:18:39;11.57;;;5.28;;
63005;SDS011;53704;52.532;6.426;2023-03-21T15:21:09;10.10;;;5.47;;
63005;SDS011;53704;52.532;6.426;2023-03-21T15:23:41;10.10;;;4.85;;
63005;SDS011;53704;52.532;6.426;2023-03-21T15:26:12;13.35;;;5.03;;
63005;SDS011;53704;52.532;6.426;2023-03-21T15:28:40;10.20;;;5.15;;
63005;SDS011;53704;52.532;6.426;2023-03-21T15:31:05;7.22;;;4.97;;
63005;SDS011;53704;52.532;6.426;2023-03-21T15:33:40;7.38;;;4.65;;
63005;SDS011;53704;52.532;6.426;2023-03-21T15:36:10;15.57;;;5.53;;
63005;SDS011;53704;52.532;6.426;2023-03-21T15:38:36;12.27;;;5.47;;
63005;SDS011;53704;52.532;6.426;2023-03-21T15:44:27;12.30;;;5.93;;
63005;SDS011;53704;52.532;6.426;2023-03-21T15:46:46;10.88;;;4.82;;
63005;SDS011;53704;52.532;6.426;2023-03-21T15:49:22;8.05;;;5.03;;
63005;SDS011;53704;52.532;6.426;2023-03-21T15:54:29;17.30;;;5.88;;
63005;SDS011;53704;52.532;6.426;2023-03-21T15:57:00;11.05;;;5.25;;
63005;SDS011;53704;52.532;6.426;2023-03-21T15:59:34;9.13;;;5.30;;
63005;SDS011;53704;52.532;6.426;2023-03-21T16:02:09;14.35;;;5.57;;
63005;SDS011;53704;52.532;6.426;2023-03-21T16:05:00;14.43;;;5.32;;
63005;SDS011;53704;52.532;6.426;2023-03-21T16:07:46;11.73;;;5.30;;
63005;SDS011;53704;52.532;6.426;2023-03-21T16:10:31;8.00;;;5.07;;
63005;SDS011;53704;52.532;6.426;2023-03-21T16:13:00;8.65;;;5.35;;
63005;SDS011;53704;52.532;6.426;2023-03-21T16:15:26;8.95;;;4.75;;
63005;SDS011;53704;52.532;6.426;2023-03-21T16:17:53;7.50;;;5.18;;
63005;SDS011;53704;52.532;6.426;2023-03-21T16:20:22;6.75;;;5.00;;